Latest Weather Observations for Witchcliffe

IDW60801

Issued at 8:05 am WST Friday 22 August 2014 (issued every 30 minutes, with the page automatically refreshed every 10 minutes)

About weather observations | Map of weather stations | Latest weather observations for WA | Other Formats
Station Details ID: 009746 Name: WITCHCLIFFE Lat: -34.03 Lon: 115.10 Height: 80.0 m
Data from the previous 72 hours. | See also: Recent months at Witchcliffe
Date/Time
WST
Temp
°C
App
Temp
°C
Dew
Point
Rel
Hum
%
Delta-T
°C
Wind Press
QNH
hPa
Press
MSL
hPa
Rain
since 9 am
mm
Dir
 
Spd
km/h
Gust
km/h
Spd
kts
Gust
kts
22/08:00am 12.9 10.9 6.9 67 2.9 WSW 7 17 4 9 1020.0 - 5.0
22/07:30am 12.3 10.8 7.0 70 2.5 W 4 9 2 5 1019.5 - 4.8
22/07:00am 12.0 9.5 6.5 69 2.6 W 9 17 5 9 1019.0 - 4.8
22/06:30am 12.4 10.1 5.6 63 3.2 SSW 7 15 4 8 1018.5 - 4.6
22/06:00am 12.8 9.5 4.3 56 3.9 SW 11 20 6 11 1018.0 1018.2 4.6
22/05:30am 13.2 9.5 4.6 56 4.0 WSW 13 20 7 11 1017.6 - 4.4
22/05:00am 13.0 8.4 3.9 54 4.1 WSW 17 26 9 14 1017.0 - 4.4
22/04:30am 13.0 8.8 3.7 53 4.2 WSW 15 30 8 16 1016.5 - 4.2
22/04:00am 13.3 7.9 2.5 48 4.8 W 20 33 11 18 1016.1 - 4.2
22/03:30am 13.2 7.2 3.6 52 4.3 WSW 24 41 13 22 1016.0 - 4.0
22/03:00am 13.1 8.4 5.3 59 3.6 WSW 19 30 10 16 1015.7 1015.9 4.0
22/02:30am 13.5 8.2 4.9 56 4.0 W 22 43 12 23 1015.2 - 3.8
22/02:00am 12.9 9.2 6.3 64 3.1 W 15 24 8 13 1015.1 - 3.6
22/01:30am 12.5 8.0 6.8 68 2.7 W 20 35 11 19 1014.8 - 3.6
22/01:00am 11.5 7.1 9.1 85 1.2 WSW 22 61 12 33 1014.5 - 3.4
22/12:54am 12.2 4.6 9.0 81 1.6 W 39 61 21 33 1014.6 - 3.4
22/12:30am 12.4 8.9 8.7 78 1.9 W 17 28 9 15 1013.9 - 3.4
22/12:00am 12.8 8.4 8.9 77 2.0 W 22 37 12 20 1013.9 1014.0 3.2
 
Date/Time
WST
Temp
°C
App
Temp
°C
Dew
Point
Rel
Hum
%
Delta-T
°C
Wind Press
QNH
hPa
Press
MSL
hPa
Rain
since 9 am
mm
Dir
 
Spd
km/h
Gust
km/h
Spd
kts
Gust
kts
21/11:33pm 12.9 5.2 8.6 75 2.2 W 39 61 21 33 1013.6 - 3.0
21/11:30pm 13.5 7.2 8.8 73 2.4 WNW 32 52 17 28 1013.4 - 3.0
21/11:25pm 13.5 7.6 7.7 68 2.9 WNW 28 50 15 27 1013.2 - 3.0
21/11:00pm 14.0 8.8 7.1 63 3.4 WNW 24 41 13 22 1013.1 - 3.0
21/10:30pm 12.5 8.5 9.0 79 1.8 WNW 20 32 11 17 1013.0 - 2.8
21/10:07pm 12.8 7.4 9.6 81 1.6 WNW 28 52 15 28 1013.2 - 2.8
21/10:00pm 14.9 10.4 6.2 56 4.2 WNW 19 43 10 23 1012.8 - 2.6
21/09:30pm 14.7 10.1 6.3 57 4.1 WNW 20 32 11 17 1012.8 - 2.6
21/09:00pm 14.0 9.9 7.8 66 3.1 NW 19 35 10 19 1012.7 1012.8 2.6
21/08:30pm 13.1 9.1 8.4 73 2.3 NW 19 32 10 17 1012.6 - 2.4
21/08:18pm 13.6 7.8 8.0 69 2.8 NW 28 46 15 25 1012.6 - 2.4
21/08:00pm 14.0 9.9 8.0 67 3.0 NW 19 30 10 16 1012.1 - 2.4
21/07:30pm 13.3 10.1 8.6 73 2.4 NW 15 24 8 13 1011.9 - 2.2
21/07:00pm 12.5 10.4 9.9 84 1.3 NW 11 17 6 9 1011.7 - 2.2
21/06:30pm 14.9 11.4 7.2 60 3.8 NW 15 22 8 12 1011.2 - 2.0
21/06:00pm 14.3 11.2 7.1 62 3.5 NW 13 20 7 11 1010.8 1010.9 2.0
21/05:30pm 14.7 11.5 7.0 60 3.8 NW 13 19 7 10 1010.6 - 2.0
21/05:00pm 15.8 11.3 6.3 53 4.6 WNW 19 33 10 18 1010.4 - 2.0
21/04:30pm 15.7 12.0 6.2 53 4.6 WNW 15 22 8 12 1010.0 - 2.0
21/04:00pm 16.2 11.8 6.6 53 4.7 WNW 19 35 10 19 1009.8 - 2.0
21/03:30pm 16.8 12.3 6.9 52 4.9 W 20 32 11 17 1009.7 - 2.0
21/03:00pm 16.8 12.4 6.6 51 5.0 W 19 33 10 18 1009.8 1010.0 2.0
21/02:30pm 16.9 12.3 8.3 57 4.4 WNW 22 33 12 18 1009.6 - 2.0
21/02:00pm 16.6 12.0 8.3 58 4.2 W 22 37 12 20 1009.4 - 2.0
21/01:30pm 15.8 11.6 9.7 67 3.2 W 22 37 12 20 1009.4 - 2.0
21/01:17pm 15.8 10.6 10.3 70 2.9 W 28 46 15 25 1009.2 - 2.0
21/01:00pm 16.8 12.8 10.4 66 3.4 W 22 33 12 18 1009.0 - 2.0
21/12:30pm 17.3 13.3 10.4 64 3.7 WNW 22 35 12 19 1008.9 - 2.0
21/12:00pm 17.3 13.2 11.6 69 3.1 WNW 24 35 13 19 1009.1 1009.3 1.8
21/11:30am 16.0 13.3 12.9 82 1.7 NW 19 33 10 18 1009.2 - 1.6
21/11:00am 14.6 13.1 14.1 97 0.3 NW 15 24 8 13 1009.3 - 1.2
21/10:30am 13.7 11.2 13.5 99 0.1 W 19 33 10 18 1009.5 - 0.8
21/10:00am 14.5 12.8 13.5 94 0.6 W 15 28 8 15 1009.0 - 0.4
21/09:30am 15.1 13.0 13.6 91 0.8 W 17 39 9 21 1008.4 - 0.2
21/09:00am 16.4 13.4 12.4 77 2.2 NW 20 39 11 21 1007.8 1008.0 25.4
21/08:30am 16.6 13.2 10.5 67 3.3 NW 19 30 10 16 1007.5 - 25.4
21/08:00am 16.0 11.6 10.3 69 3.0 WNW 24 37 13 20 1007.2 - 25.4
21/07:30am 15.7 11.6 10.0 69 3.0 WNW 22 37 12 20 1006.7 - 25.4
21/07:00am 15.2 10.5 9.1 67 3.1 WNW 24 39 13 21 1006.2 - 25.4
21/06:30am 15.2 10.7 10.2 72 2.6 WNW 24 43 13 23 1005.7 - 25.4
21/06:00am 15.3 11.4 10.9 75 2.4 WNW 22 35 12 19 1005.4 1005.6 25.4
21/05:30am 15.6 10.5 11.8 78 2.1 WNW 30 50 16 27 1005.3 - 25.2
21/05:01am 14.9 11.2 14.9 100 0.0 WNW 28 46 15 25 1005.1 - 24.4
21/05:00am 15.0 11.3 15.0 100 0.0 WNW 28 44 15 24 1005.1 - 24.4
21/04:30am 15.8 14.5 15.8 100 0.0 WNW 17 33 9 18 1004.6 - 23.4
21/04:00am 15.8 13.9 15.8 100 0.0 NW 20 32 11 17 1004.4 - 22.4
21/03:30am 16.2 14.7 16.2 100 0.0 NNW 19 24 10 13 1004.4 - 21.6
21/03:00am 16.2 13.0 16.2 100 0.0 NNW 28 50 15 27 1004.5 1004.7 15.6
21/02:59am 16.2 13.0 16.2 100 0.0 NNW 28 50 15 27 1004.5 - 15.4
21/02:30am 16.2 13.3 16.2 100 0.0 NNW 26 39 14 21 1005.0 - 8.4
21/02:00am 15.9 12.5 15.9 100 0.0 N 28 43 15 23 1005.3 - 1.2
21/01:30am 15.9 12.2 15.9 100 0.0 N 30 41 16 22 1006.1 - 1.0
21/01:00am 15.9 11.8 15.9 100 0.0 N 32 48 17 26 1006.5 - 0.8
21/12:30am 15.8 11.1 15.8 100 0.0 N 35 46 19 25 1006.6 - 0.8
21/12:00am 15.6 11.7 15.6 100 0.0 N 30 41 16 22 1007.4 1007.6 0.6
 
Date/Time
WST
Temp
°C
App
Temp
°C
Dew
Point
Rel
Hum
%
Delta-T
°C
Wind Press
QNH
hPa
Press
MSL
hPa
Rain
since 9 am
mm
Dir
 
Spd
km/h
Gust
km/h
Spd
kts
Gust
kts
20/11:30pm 15.5 11.5 15.3 99 0.1 N 30 39 16 21 1007.8 - 0.6
20/11:00pm 15.3 11.3 15.1 99 0.1 N 30 43 16 23 1008.1 - 0.6
20/10:30pm 14.9 11.5 14.7 99 0.1 N 26 37 14 20 1008.9 - 0.6
20/10:02pm 15.3 11.2 13.7 90 0.9 N 28 46 15 25 1009.5 - 0.6
20/10:00pm 15.2 10.9 13.2 88 1.1 N 28 37 15 20 1009.5 - 0.6
20/09:30pm 15.3 11.3 13.0 86 1.3 N 26 43 14 23 1009.8 - 0.6
20/09:00pm 15.4 11.8 13.1 86 1.3 N 24 32 13 17 1010.4 1010.5 0.6
20/08:30pm 15.2 12.2 12.5 84 1.5 N 20 28 11 15 1010.6 - 0.4
20/08:00pm 14.9 12.4 12.2 84 1.5 N 17 22 9 12 1010.8 - 0.4
20/07:30pm 15.2 12.4 11.4 78 2.0 N 17 22 9 12 1011.2 - 0.4
20/07:00pm 14.7 12.6 11.1 79 1.9 N 13 17 7 9 1010.9 - 0.4
20/06:30pm 15.1 12.6 10.9 76 2.2 N 15 19 8 10 1010.8 - 0.4
20/06:00pm 15.8 13.2 10.8 72 2.7 N 15 22 8 12 1010.9 1011.0 0.4
20/05:30pm 16.3 12.9 10.6 69 3.0 N 19 24 10 13 1011.0 - 0.4
20/05:00pm 16.6 12.9 10.2 66 3.4 NNW 20 30 11 16 1011.1 - 0.4
20/04:30pm 16.9 13.2 10.1 64 3.6 N 20 28 11 15 1011.1 - 0.4
20/04:00pm 17.5 13.9 9.7 60 4.1 NW 19 28 10 15 1011.2 - 0.4
20/03:30pm 17.3 12.7 9.5 60 4.1 N 24 32 13 17 1011.1 - 0.4
20/03:00pm 17.9 13.4 10.0 60 4.2 NNW 24 32 13 17 1011.2 1011.3 0.4
20/02:30pm 18.3 13.7 9.6 57 4.6 NNW 24 37 13 20 1011.3 - 0.4
20/02:00pm 18.3 14.8 10.9 62 4.0 NNW 20 32 11 17 1011.4 - 0.4
20/01:30pm 18.1 13.7 10.5 61 4.1 NNW 24 35 13 19 1011.6 - 0.4
20/01:00pm 17.7 13.6 11.5 67 3.4 NNW 24 43 13 23 1012.1 - 0.2
20/12:30pm 17.2 12.6 11.2 68 3.3 NNW 26 41 14 22 1012.6 - 0.2
20/12:00pm 17.2 14.1 12.1 72 2.8 NNW 20 32 11 17 1013.0 1013.1 0.2
20/11:30am 15.9 14.7 14.1 89 1.0 NNW 13 22 7 12 1013.3 - 0.2
20/11:00am 15.5 11.5 11.7 78 2.1 NW 24 39 13 21 1013.6 - 0.2
20/10:30am 16.2 15.0 12.7 80 1.9 N 11 19 6 10 1013.7 - 0.0
20/10:00am 16.4 13.7 11.8 74 2.5 N 17 22 9 12 1013.9 - 0.0
20/09:30am 16.2 14.3 12.9 81 1.8 N 15 17 8 9 1013.9 - 0.0
20/09:00am 14.7 14.1 14.7 100 0.0 N 11 17 6 9 1014.2 1014.3 0.4
20/08:30am 13.0 12.2 13.0 100 0.0 N 9 13 5 7 1014.5 - 0.4
20/08:00am 12.0 11.3 12.0 100 0.0 N 7 9 4 5 1014.4 - 0.4
20/07:30am 11.5 10.3 11.5 100 0.0 N 9 13 5 7 1014.3 - 0.4
20/07:00am 10.5 9.0 10.5 100 0.0 N 9 13 5 7 1014.1 - 0.4
20/06:30am 10.1 9.0 10.1 100 0.0 N 6 7 3 4 1013.8 - 0.4
20/06:00am 11.4 10.5 11.4 100 0.0 N 7 9 4 5 1013.7 1013.8 0.4
20/05:30am 10.5 10.7 10.5 100 0.0 CALM 0 0 0 0 1013.5 - 0.4
20/05:00am 10.5 10.7 10.5 100 0.0 CALM 0 0 0 0 1013.6 - 0.2
20/04:30am 11.3 11.7 11.3 100 0.0 CALM 0 0 0 0 1013.7 - 0.2
20/04:00am 11.8 11.0 11.8 100 0.0 N 7 11 4 6 1013.9 - 0.2
20/03:30am 12.0 11.3 12.0 100 0.0 N 7 9 4 5 1014.2 - 0.2
20/03:00am 12.4 13.2 12.4 100 0.0 CALM 0 6 0 3 1014.5 1014.6 0.0
20/02:30am 11.5 12.0 11.5 100 0.0 CALM 0 0 0 0 1014.9 - 0.0
20/02:00am 10.8 11.1 10.8 100 0.0 CALM 0 0 0 0 1015.0 - 0.0
20/01:30am 11.3 11.7 11.3 100 0.0 CALM 0 0 0 0 1015.4 - 0.0
20/01:00am 11.3 11.7 11.3 100 0.0 CALM 0 0 0 0 1015.7 - 0.0
20/12:30am 11.0 10.2 11.0 100 0.0 NW 6 9 3 5 1016.0 - 0.0
20/12:00am 8.9 8.7 8.9 100 0.0 CALM 0 0 0 0 1015.9 1016.1 0.0
 
Date/Time
WST
Temp
°C
App
Temp
°C
Dew
Point
Rel
Hum
%
Delta-T
°C
Wind Press
QNH
hPa
Press
MSL
hPa
Rain
since 9 am
mm
Dir
 
Spd
km/h
Gust
km/h
Spd
kts
Gust
kts
19/11:30pm 9.2 9.0 9.2 100 0.0 CALM 0 0 0 0 1016.0 - 0.0
19/11:00pm 9.8 9.8 9.8 100 0.0 CALM 0 0 0 0 1015.9 - 0.0
19/10:30pm 9.6 9.5 9.6 100 0.0 CALM 0 0 0 0 1016.2 - 0.0
19/10:00pm 10.2 10.3 10.2 100 0.0 CALM 0 0 0 0 1016.5 - 0.0
19/09:30pm 10.3 10.4 10.1 99 0.1 CALM 0 0 0 0 1016.6 - 0.0
19/09:00pm 10.8 11.0 10.6 99 0.1 CALM 0 0 0 0 1016.7 1016.9 0.0
19/08:30pm 10.7 10.9 10.5 99 0.1 CALM 0 0 0 0 1016.6 - 0.0
19/08:00pm 11.5 11.9 11.3 99 0.1 CALM 0 0 0 0 1016.3 - 0.0
19/07:30pm 11.6 12.0 11.4 99 0.1 CALM 0 0 0 0 1016.4 - 0.0
19/07:00pm 12.5 13.1 12.0 97 0.3 CALM 0 0 0 0 1016.0 - 0.0
19/06:30pm 13.1 13.7 11.8 92 0.7 CALM 0 0 0 0 1016.0 - 0.0
19/06:00pm 14.6 15.3 12.1 85 1.4 CALM 0 0 0 0 1015.8 1016.0 0.0
19/05:30pm 15.5 14.5 12.4 82 1.7 SW 9 15 5 8 1015.8 - 0.0
19/05:00pm 16.2 14.5 12.4 78 2.1 SW 13 22 7 12 1015.8 - 0.0
19/04:30pm 17.3 14.8 12.4 73 2.7 SW 17 26 9 14 1015.6 - 0.0
19/04:00pm 17.8 14.6 11.8 68 3.3 SW 20 26 11 14 1015.4 - 0.0
19/03:30pm 18.4 17.4 12.2 67 3.4 SSW 9 15 5 8 1015.2 - 0.0
19/03:00pm 17.3 15.9 10.9 66 3.4 S 9 15 5 8 1015.1 1015.3 0.0
19/02:30pm 17.5 15.5 11.5 68 3.3 S 13 17 7 9 1015.2 - 0.0
19/02:00pm 17.4 14.7 11.7 69 3.1 S 17 22 9 12 1015.1 - 0.0
19/01:30pm 17.3 15.2 11.1 67 3.4 S 13 20 7 11 1015.4 - 0.0
19/01:00pm 18.6 17.5 13.0 70 3.2 S 11 20 6 11 1015.4 - 0.0
19/12:30pm 17.7 16.4 12.4 71 2.9 S 11 15 6 8 1015.6 - 0.0
19/12:00pm 17.3 16.0 12.4 73 2.7 S 11 15 6 8 1015.9 1016.1 0.0
19/11:30am 17.1 14.9 12.0 72 2.8 S 15 19 8 10 1016.1 - 0.0
19/11:00am 16.8 14.1 11.7 72 2.8 S 17 28 9 15 1016.3 - 0.0
19/10:30am 17.2 14.6 12.1 72 2.8 SSW 17 28 9 15 1016.3 - 0.0
19/10:00am 17.2 15.5 12.3 73 2.7 S 13 24 7 13 1016.6 - 0.0
19/09:30am 16.1 13.5 11.9 76 2.3 S 17 26 9 14 1016.6 - 0.0
19/09:00am 16.1 14.0 12.3 78 2.1 SSW 15 22 8 12 1016.6 1016.8 13.2
19/08:30am 15.2 14.0 12.7 85 1.4 SSW 11 20 6 11 1016.5 - 13.2

Other Formats:

Comma delimited format used in spreadsheet applications
http://www.bom.gov.au/fwo/IDW60801/IDW60801.95641.axf

JavaScript Object Notation format (JSON) in row-major order
http://www.bom.gov.au/fwo/IDW60801/IDW60801.95641.json